sensor_id;sensor_type;location;lat;lon;timestamp;P1;durP1;ratioP1;P2;durP2;ratioP2
19998;SDS011;10160;50.926;4.374;2022-08-01T00:01:33;8.32;;;2.75;;
19998;SDS011;10160;50.926;4.374;2022-08-01T00:03:58;8.10;;;2.78;;
19998;SDS011;10160;50.926;4.374;2022-08-01T00:06:25;10.32;;;3.15;;
19998;SDS011;10160;50.926;4.374;2022-08-01T00:08:50;8.48;;;2.53;;
19998;SDS011;10160;50.926;4.374;2022-08-01T00:11:16;9.68;;;3.05;;
19998;SDS011;10160;50.926;4.374;2022-08-01T00:13:42;10.05;;;3.17;;
19998;SDS011;10160;50.926;4.374;2022-08-01T00:16:08;8.73;;;3.45;;
19998;SDS011;10160;50.926;4.374;2022-08-01T00:18:33;7.60;;;3.30;;
19998;SDS011;10160;50.926;4.374;2022-08-01T00:21:00;10.35;;;4.13;;
19998;SDS011;10160;50.926;4.374;2022-08-01T00:23:27;10.52;;;3.70;;
19998;SDS011;10160;50.926;4.374;2022-08-01T00:25:53;8.27;;;3.50;;
19998;SDS011;10160;50.926;4.374;2022-08-01T00:28:18;7.70;;;3.30;;
19998;SDS011;10160;50.926;4.374;2022-08-01T00:30:44;8.02;;;3.50;;
19998;SDS011;10160;50.926;4.374;2022-08-01T00:33:10;11.32;;;3.25;;
19998;SDS011;10160;50.926;4.374;2022-08-01T00:35:35;7.15;;;3.00;;
19998;SDS011;10160;50.926;4.374;2022-08-01T00:38:01;7.47;;;3.40;;
19998;SDS011;10160;50.926;4.374;2022-08-01T00:40:27;9.13;;;3.60;;
19998;SDS011;10160;50.926;4.374;2022-08-01T00:42:52;8.48;;;4.15;;
19998;SDS011;10160;50.926;4.374;2022-08-01T00:45:18;11.85;;;3.58;;
19998;SDS011;10160;50.926;4.374;2022-08-01T00:47:44;8.30;;;4.15;;
19998;SDS011;10160;50.926;4.374;2022-08-01T00:50:10;10.60;;;3.58;;
19998;SDS011;10160;50.926;4.374;2022-08-01T00:52:36;10.75;;;4.03;;
19998;SDS011;10160;50.926;4.374;2022-08-01T00:55:04;6.30;;;3.05;;
19998;SDS011;10160;50.926;4.374;2022-08-01T00:57:30;9.32;;;3.70;;
19998;SDS011;10160;50.926;4.374;2022-08-01T00:59:56;11.20;;;3.85;;
19998;SDS011;10160;50.926;4.374;2022-08-01T01:02:22;9.07;;;3.08;;
19998;SDS011;10160;50.926;4.374;2022-08-01T01:04:47;7.20;;;2.92;;
19998;SDS011;10160;50.926;4.374;2022-08-01T01:07:17;11.95;;;3.60;;
19998;SDS011;10160;50.926;4.374;2022-08-01T01:09:58;11.13;;;3.60;;
19998;SDS011;10160;50.926;4.374;2022-08-01T01:18:09;9.05;;;3.38;;
19998;SDS011;10160;50.926;4.374;2022-08-01T01:20:42;6.97;;;3.38;;
19998;SDS011;10160;50.926;4.374;2022-08-01T01:23:12;12.73;;;4.10;;
19998;SDS011;10160;50.926;4.374;2022-08-01T01:26:04;12.18;;;6.20;;
19998;SDS011;10160;50.926;4.374;2022-08-01T01:31:46;19.02;;;7.80;;
19998;SDS011;10160;50.926;4.374;2022-08-01T01:34:17;17.73;;;8.38;;
19998;SDS011;10160;50.926;4.374;2022-08-01T01:36:46;16.25;;;8.23;;
19998;SDS011;10160;50.926;4.374;2022-08-01T01:39:13;21.17;;;8.82;;
19998;SDS011;10160;50.926;4.374;2022-08-01T01:41:40;15.48;;;7.75;;
19998;SDS011;10160;50.926;4.374;2022-08-01T01:44:09;19.25;;;9.00;;
19998;SDS011;10160;50.926;4.374;2022-08-01T01:46:36;21.17;;;9.07;;
19998;SDS011;10160;50.926;4.374;2022-08-01T01:49:02;16.20;;;7.90;;
19998;SDS011;10160;50.926;4.374;2022-08-01T01:51:30;19.63;;;8.85;;
19998;SDS011;10160;50.926;4.374;2022-08-01T01:53:58;18.73;;;8.60;;
19998;SDS011;10160;50.926;4.374;2022-08-01T01:56:25;16.63;;;9.02;;
19998;SDS011;10160;50.926;4.374;2022-08-01T01:58:54;20.30;;;9.50;;
19998;SDS011;10160;50.926;4.374;2022-08-01T02:01:23;17.48;;;8.05;;
19998;SDS011;10160;50.926;4.374;2022-08-01T02:03:51;18.58;;;8.82;;
19998;SDS011;10160;50.926;4.374;2022-08-01T02:06:19;24.90;;;9.85;;
19998;SDS011;10160;50.926;4.374;2022-08-01T02:08:46;26.05;;;10.02;;
19998;SDS011;10160;50.926;4.374;2022-08-01T02:11:13;26.95;;;10.05;;
19998;SDS011;10160;50.926;4.374;2022-08-01T02:13:48;24.98;;;9.80;;
19998;SDS011;10160;50.926;4.374;2022-08-01T02:16:18;23.20;;;10.43;;
19998;SDS011;10160;50.926;4.374;2022-08-01T02:18:48;23.60;;;10.23;;
19998;SDS011;10160;50.926;4.374;2022-08-01T02:21:16;18.58;;;9.43;;
19998;SDS011;10160;50.926;4.374;2022-08-01T02:23:55;24.90;;;10.30;;
19998;SDS011;10160;50.926;4.374;2022-08-01T02:26:29;26.75;;;10.07;;
19998;SDS011;10160;50.926;4.374;2022-08-01T02:28:57;26.30;;;10.02;;
19998;SDS011;10160;50.926;4.374;2022-08-01T02:31:28;21.67;;;9.38;;
19998;SDS011;10160;50.926;4.374;2022-08-01T02:33:58;26.92;;;10.18;;
19998;SDS011;10160;50.926;4.374;2022-08-01T02:36:29;24.88;;;10.32;;
19998;SDS011;10160;50.926;4.374;2022-08-01T02:38:59;27.30;;;11.52;;
19998;SDS011;10160;50.926;4.374;2022-08-01T02:41:28;19.50;;;10.45;;
19998;SDS011;10160;50.926;4.374;2022-08-01T02:43:58;24.30;;;10.75;;
19998;SDS011;10160;50.926;4.374;2022-08-01T02:46:36;26.88;;;11.20;;
19998;SDS011;10160;50.926;4.374;2022-08-01T02:49:08;24.38;;;10.43;;
19998;SDS011;10160;50.926;4.374;2022-08-01T02:51:36;23.85;;;10.13;;
19998;SDS011;10160;50.926;4.374;2022-08-01T02:54:04;25.55;;;11.10;;
19998;SDS011;10160;50.926;4.374;2022-08-01T02:56:33;24.15;;;10.85;;
19998;SDS011;10160;50.926;4.374;2022-08-01T02:59:04;26.83;;;10.48;;
19998;SDS011;10160;50.926;4.374;2022-08-01T03:01:33;26.90;;;11.27;;
19998;SDS011;10160;50.926;4.374;2022-08-01T03:04:00;35.25;;;11.65;;
19998;SDS011;10160;50.926;4.374;2022-08-01T03:06:26;36.50;;;13.40;;
19998;SDS011;10160;50.926;4.374;2022-08-01T03:08:53;27.48;;;12.77;;
19998;SDS011;10160;50.926;4.374;2022-08-01T03:11:20;32.75;;;11.93;;
19998;SDS011;10160;50.926;4.374;2022-08-01T03:13:49;27.08;;;12.00;;
19998;SDS011;10160;50.926;4.374;2022-08-01T03:16:16;31.08;;;12.65;;
19998;SDS011;10160;50.926;4.374;2022-08-01T03:18:43;32.47;;;13.25;;
19998;SDS011;10160;50.926;4.374;2022-08-01T03:21:11;36.90;;;13.35;;
19998;SDS011;10160;50.926;4.374;2022-08-01T03:23:38;32.92;;;13.82;;
19998;SDS011;10160;50.926;4.374;2022-08-01T03:26:06;31.45;;;13.40;;
19998;SDS011;10160;50.926;4.374;2022-08-01T03:28:34;33.78;;;13.45;;
19998;SDS011;10160;50.926;4.374;2022-08-01T03:31:02;32.97;;;13.52;;
19998;SDS011;10160;50.926;4.374;2022-08-01T03:33:28;31.27;;;14.80;;
19998;SDS011;10160;50.926;4.374;2022-08-01T03:35:54;30.27;;;14.50;;
19998;SDS011;10160;50.926;4.374;2022-08-01T03:38:24;35.53;;;13.18;;
19998;SDS011;10160;50.926;4.374;2022-08-01T03:43:38;32.92;;;14.80;;
19998;SDS011;10160;50.926;4.374;2022-08-01T03:46:20;33.92;;;15.00;;
19998;SDS011;10160;50.926;4.374;2022-08-01T03:48:52;34.22;;;14.68;;
19998;SDS011;10160;50.926;4.374;2022-08-01T03:51:23;32.67;;;14.18;;
19998;SDS011;10160;50.926;4.374;2022-08-01T03:53:49;37.72;;;15.02;;
19998;SDS011;10160;50.926;4.374;2022-08-01T03:56:19;29.63;;;15.02;;
19998;SDS011;10160;50.926;4.374;2022-08-01T03:58:47;34.90;;;15.07;;
19998;SDS011;10160;50.926;4.374;2022-08-01T04:01:14;30.27;;;14.13;;
19998;SDS011;10160;50.926;4.374;2022-08-01T04:03:41;37.72;;;15.18;;
19998;SDS011;10160;50.926;4.374;2022-08-01T04:06:07;28.75;;;12.75;;
19998;SDS011;10160;50.926;4.374;2022-08-01T04:08:39;26.65;;;13.75;;
19998;SDS011;10160;50.926;4.374;2022-08-01T04:11:07;31.23;;;14.52;;
19998;SDS011;10160;50.926;4.374;2022-08-01T04:13:33;27.17;;;13.45;;
19998;SDS011;10160;50.926;4.374;2022-08-01T04:15:59;30.92;;;14.40;;
19998;SDS011;10160;50.926;4.374;2022-08-01T04:18:25;26.35;;;12.82;;
19998;SDS011;10160;50.926;4.374;2022-08-01T04:20:51;25.55;;;13.85;;
19998;SDS011;10160;50.926;4.374;2022-08-01T04:23:20;24.00;;;13.65;;
19998;SDS011;10160;50.926;4.374;2022-08-01T04:25:50;27.25;;;13.68;;
19998;SDS011;10160;50.926;4.374;2022-08-01T04:28:16;24.00;;;14.32;;
19998;SDS011;10160;50.926;4.374;2022-08-01T04:30:45;27.35;;;14.13;;
19998;SDS011;10160;50.926;4.374;2022-08-01T04:33:14;28.98;;;14.30;;
19998;SDS011;10160;50.926;4.374;2022-08-01T04:35:43;25.75;;;14.35;;
19998;SDS011;10160;50.926;4.374;2022-08-01T04:38:10;24.92;;;13.55;;
19998;SDS011;10160;50.926;4.374;2022-08-01T04:40:39;23.67;;;13.25;;
19998;SDS011;10160;50.926;4.374;2022-08-01T04:43:07;26.77;;;13.95;;
19998;SDS011;10160;50.926;4.374;2022-08-01T04:45:33;26.42;;;12.93;;
19998;SDS011;10160;50.926;4.374;2022-08-01T04:48:00;20.90;;;12.85;;
19998;SDS011;10160;50.926;4.374;2022-08-01T04:50:26;26.75;;;13.32;;
19998;SDS011;10160;50.926;4.374;2022-08-01T04:52:52;23.10;;;11.95;;
19998;SDS011;10160;50.926;4.374;2022-08-01T04:55:18;21.60;;;11.68;;
19998;SDS011;10160;50.926;4.374;2022-08-01T04:57:44;21.23;;;11.45;;
19998;SDS011;10160;50.926;4.374;2022-08-01T05:00:11;20.02;;;11.38;;
19998;SDS011;10160;50.926;4.374;2022-08-01T05:02:37;18.92;;;10.75;;
19998;SDS011;10160;50.926;4.374;2022-08-01T05:05:03;17.02;;;10.35;;
19998;SDS011;10160;50.926;4.374;2022-08-01T05:07:31;19.77;;;10.98;;
19998;SDS011;10160;50.926;4.374;2022-08-01T05:09:57;18.10;;;9.82;;
19998;SDS011;10160;50.926;4.374;2022-08-01T05:12:23;15.85;;;9.98;;
19998;SDS011;10160;50.926;4.374;2022-08-01T05:14:49;18.20;;;9.18;;
19998;SDS011;10160;50.926;4.374;2022-08-01T05:17:14;18.10;;;10.52;;
19998;SDS011;10160;50.926;4.374;2022-08-01T05:19:41;17.63;;;9.40;;
19998;SDS011;10160;50.926;4.374;2022-08-01T05:22:08;19.10;;;9.80;;
19998;SDS011;10160;50.926;4.374;2022-08-01T05:24:35;16.35;;;9.55;;
19998;SDS011;10160;50.926;4.374;2022-08-01T05:27:03;20.52;;;10.73;;
19998;SDS011;10160;50.926;4.374;2022-08-01T05:29:29;15.60;;;10.07;;
19998;SDS011;10160;50.926;4.374;2022-08-01T05:31:55;18.50;;;9.70;;
19998;SDS011;10160;50.926;4.374;2022-08-01T05:34:22;17.10;;;9.52;;
19998;SDS011;10160;50.926;4.374;2022-08-01T05:36:48;18.15;;;9.77;;
19998;SDS011;10160;50.926;4.374;2022-08-01T05:39:14;13.25;;;8.63;;
19998;SDS011;10160;50.926;4.374;2022-08-01T05:41:40;16.77;;;9.07;;
19998;SDS011;10160;50.926;4.374;2022-08-01T05:44:06;12.60;;;7.55;;
19998;SDS011;10160;50.926;4.374;2022-08-01T05:46:33;15.15;;;8.93;;
19998;SDS011;10160;50.926;4.374;2022-08-01T05:49:00;14.98;;;8.27;;
19998;SDS011;10160;50.926;4.374;2022-08-01T05:51:26;18.88;;;8.18;;
19998;SDS011;10160;50.926;4.374;2022-08-01T05:53:52;14.18;;;7.28;;
19998;SDS011;10160;50.926;4.374;2022-08-01T05:56:18;16.17;;;7.90;;
19998;SDS011;10160;50.926;4.374;2022-08-01T05:58:45;15.85;;;7.55;;
19998;SDS011;10160;50.926;4.374;2022-08-01T06:01:11;14.52;;;7.43;;
19998;SDS011;10160;50.926;4.374;2022-08-01T06:03:37;15.98;;;6.78;;
19998;SDS011;10160;50.926;4.374;2022-08-01T06:06:02;12.15;;;6.40;;
19998;SDS011;10160;50.926;4.374;2022-08-01T06:08:29;13.15;;;6.85;;
19998;SDS011;10160;50.926;4.374;2022-08-01T06:10:55;12.50;;;5.85;;
19998;SDS011;10160;50.926;4.374;2022-08-01T06:13:22;15.43;;;7.10;;
19998;SDS011;10160;50.926;4.374;2022-08-01T06:15:48;15.27;;;6.43;;
19998;SDS011;10160;50.926;4.374;2022-08-01T06:18:13;16.52;;;5.85;;
19998;SDS011;10160;50.926;4.374;2022-08-01T06:20:39;11.27;;;5.85;;
19998;SDS011;10160;50.926;4.374;2022-08-01T06:23:05;12.25;;;5.63;;
19998;SDS011;10160;50.926;4.374;2022-08-01T06:25:31;12.65;;;5.95;;
19998;SDS011;10160;50.926;4.374;2022-08-01T06:27:58;13.45;;;5.72;;
19998;SDS011;10160;50.926;4.374;2022-08-01T06:30:24;10.70;;;5.35;;
19998;SDS011;10160;50.926;4.374;2022-08-01T06:32:49;10.75;;;5.25;;
19998;SDS011;10160;50.926;4.374;2022-08-01T06:35:15;13.57;;;5.40;;
19998;SDS011;10160;50.926;4.374;2022-08-01T06:37:41;10.02;;;4.43;;
19998;SDS011;10160;50.926;4.374;2022-08-01T06:40:08;8.80;;;3.88;;
19998;SDS011;10160;50.926;4.374;2022-08-01T06:42:35;7.97;;;3.50;;
19998;SDS011;10160;50.926;4.374;2022-08-01T06:45:04;7.55;;;3.45;;
19998;SDS011;10160;50.926;4.374;2022-08-01T06:47:31;9.15;;;3.70;;
19998;SDS011;10160;50.926;4.374;2022-08-01T06:49:57;8.95;;;3.67;;
19998;SDS011;10160;50.926;4.374;2022-08-01T06:52:22;8.57;;;2.95;;
19998;SDS011;10160;50.926;4.374;2022-08-01T06:54:48;7.00;;;3.05;;
19998;SDS011;10160;50.926;4.374;2022-08-01T06:57:14;6.97;;;3.15;;
19998;SDS011;10160;50.926;4.374;2022-08-01T06:59:39;7.30;;;2.67;;
19998;SDS011;10160;50.926;4.374;2022-08-01T07:02:05;6.03;;;2.70;;
19998;SDS011;10160;50.926;4.374;2022-08-01T07:04:32;10.32;;;3.05;;
19998;SDS011;10160;50.926;4.374;2022-08-01T07:06:58;7.53;;;3.30;;
19998;SDS011;10160;50.926;4.374;2022-08-01T07:09:24;6.32;;;2.70;;
19998;SDS011;10160;50.926;4.374;2022-08-01T07:11:50;5.60;;;2.35;;
19998;SDS011;10160;50.926;4.374;2022-08-01T07:14:17;6.05;;;2.20;;
19998;SDS011;10160;50.926;4.374;2022-08-01T07:16:43;6.45;;;2.20;;
19998;SDS011;10160;50.926;4.374;2022-08-01T07:19:09;3.70;;;1.92;;
19998;SDS011;10160;50.926;4.374;2022-08-01T07:21:35;3.72;;;1.70;;
19998;SDS011;10160;50.926;4.374;2022-08-01T07:24:01;4.10;;;1.65;;
19998;SDS011;10160;50.926;4.374;2022-08-01T07:26:27;4.90;;;1.90;;
19998;SDS011;10160;50.926;4.374;2022-08-01T07:28:52;9.13;;;1.85;;
19998;SDS011;10160;50.926;4.374;2022-08-01T07:31:18;3.97;;;1.70;;
19998;SDS011;10160;50.926;4.374;2022-08-01T07:33:44;4.88;;;2.10;;
19998;SDS011;10160;50.926;4.374;2022-08-01T07:36:10;4.93;;;1.45;;
19998;SDS011;10160;50.926;4.374;2022-08-01T07:38:36;11.55;;;2.30;;
19998;SDS011;10160;50.926;4.374;2022-08-01T07:41:02;5.20;;;1.90;;
19998;SDS011;10160;50.926;4.374;2022-08-01T07:43:30;7.85;;;1.60;;
19998;SDS011;10160;50.926;4.374;2022-08-01T07:45:56;3.53;;;1.40;;
19998;SDS011;10160;50.926;4.374;2022-08-01T07:48:21;4.68;;;1.40;;
19998;SDS011;10160;50.926;4.374;2022-08-01T07:50:49;5.30;;;1.48;;
19998;SDS011;10160;50.926;4.374;2022-08-01T07:53:15;4.72;;;1.45;;
19998;SDS011;10160;50.926;4.374;2022-08-01T07:55:41;3.58;;;1.73;;
19998;SDS011;10160;50.926;4.374;2022-08-01T07:58:07;4.50;;;1.50;;
19998;SDS011;10160;50.926;4.374;2022-08-01T08:00:33;4.90;;;1.63;;
19998;SDS011;10160;50.926;4.374;2022-08-01T08:02:58;5.22;;;1.65;;
19998;SDS011;10160;50.926;4.374;2022-08-01T08:05:25;4.95;;;2.00;;
19998;SDS011;10160;50.926;4.374;2022-08-01T08:07:51;4.97;;;1.75;;
19998;SDS011;10160;50.926;4.374;2022-08-01T08:10:16;4.68;;;1.70;;
19998;SDS011;10160;50.926;4.374;2022-08-01T08:12:42;4.97;;;1.88;;
19998;SDS011;10160;50.926;4.374;2022-08-01T08:15:08;5.78;;;1.75;;
19998;SDS011;10160;50.926;4.374;2022-08-01T08:17:34;3.15;;;1.48;;
19998;SDS011;10160;50.926;4.374;2022-08-01T08:20:00;3.97;;;1.60;;
19998;SDS011;10160;50.926;4.374;2022-08-01T08:22:27;4.03;;;2.08;;
19998;SDS011;10160;50.926;4.374;2022-08-01T08:24:53;4.47;;;2.00;;
19998;SDS011;10160;50.926;4.374;2022-08-01T08:27:18;4.85;;;1.90;;
19998;SDS011;10160;50.926;4.374;2022-08-01T08:29:44;3.88;;;2.05;;
19998;SDS011;10160;50.926;4.374;2022-08-01T08:32:10;4.20;;;1.90;;
19998;SDS011;10160;50.926;4.374;2022-08-01T08:34:36;3.15;;;1.67;;
19998;SDS011;10160;50.926;4.374;2022-08-01T08:37:01;4.10;;;2.30;;
19998;SDS011;10160;50.926;4.374;2022-08-01T08:39:27;3.90;;;1.98;;
19998;SDS011;10160;50.926;4.374;2022-08-01T08:41:54;4.07;;;2.28;;
19998;SDS011;10160;50.926;4.374;2022-08-01T08:44:23;5.00;;;2.60;;
19998;SDS011;10160;50.926;4.374;2022-08-01T08:46:50;3.40;;;2.08;;
19998;SDS011;10160;50.926;4.374;2022-08-01T08:49:21;3.38;;;1.80;;
19998;SDS011;10160;50.926;4.374;2022-08-01T08:51:50;3.63;;;1.30;;
19998;SDS011;10160;50.926;4.374;2022-08-01T08:54:17;4.38;;;1.33;;
19998;SDS011;10160;50.926;4.374;2022-08-01T08:56:45;4.30;;;0.90;;
19998;SDS011;10160;50.926;4.374;2022-08-01T08:59:12;4.35;;;1.30;;
19998;SDS011;10160;50.926;4.374;2022-08-01T09:01:39;6.63;;;1.20;;
19998;SDS011;10160;50.926;4.374;2022-08-01T09:04:05;2.88;;;0.90;;
19998;SDS011;10160;50.926;4.374;2022-08-01T09:06:32;2.45;;;0.90;;
19998;SDS011;10160;50.926;4.374;2022-08-01T09:08:58;3.63;;;0.90;;
19998;SDS011;10160;50.926;4.374;2022-08-01T09:11:25;2.65;;;0.80;;
19998;SDS011;10160;50.926;4.374;2022-08-01T09:14:08;4.57;;;1.27;;
19998;SDS011;10160;50.926;4.374;2022-08-01T09:16:42;3.85;;;0.98;;
19998;SDS011;10160;50.926;4.374;2022-08-01T09:21:36;2.83;;;0.88;;
19998;SDS011;10160;50.926;4.374;2022-08-01T09:24:03;2.22;;;0.50;;
19998;SDS011;10160;50.926;4.374;2022-08-01T09:26:34;2.38;;;0.85;;
19998;SDS011;10160;50.926;4.374;2022-08-01T09:29:02;2.70;;;0.75;;
19998;SDS011;10160;50.926;4.374;2022-08-01T09:31:29;2.10;;;0.82;;
19998;SDS011;10160;50.926;4.374;2022-08-01T09:34:05;4.78;;;1.27;;
19998;SDS011;10160;50.926;4.374;2022-08-01T09:36:47;2.55;;;1.10;;
19998;SDS011;10160;50.926;4.374;2022-08-01T09:39:27;5.72;;;1.60;;
19998;SDS011;10160;50.926;4.374;2022-08-01T09:41:55;6.47;;;2.38;;
19998;SDS011;10160;50.926;4.374;2022-08-01T09:44:38;6.93;;;2.88;;
19998;SDS011;10160;50.926;4.374;2022-08-01T09:47:05;5.82;;;2.67;;
19998;SDS011;10160;50.926;4.374;2022-08-01T09:49:32;5.55;;;3.15;;
19998;SDS011;10160;50.926;4.374;2022-08-01T09:52:18;6.75;;;3.20;;
19998;SDS011;10160;50.926;4.374;2022-08-01T09:54:51;8.18;;;3.45;;
19998;SDS011;10160;50.926;4.374;2022-08-01T09:57:20;4.63;;;2.30;;
19998;SDS011;10160;50.926;4.374;2022-08-01T09:59:47;3.55;;;1.90;;
19998;SDS011;10160;50.926;4.374;2022-08-01T10:02:26;5.47;;;1.73;;
19998;SDS011;10160;50.926;4.374;2022-08-01T10:05:03;4.88;;;1.80;;
19998;SDS011;10160;50.926;4.374;2022-08-01T10:07:30;3.35;;;1.80;;
19998;SDS011;10160;50.926;4.374;2022-08-01T10:10:09;5.38;;;1.60;;
19998;SDS011;10160;50.926;4.374;2022-08-01T10:12:39;2.72;;;1.33;;
19998;SDS011;10160;50.926;4.374;2022-08-01T10:15:09;1.45;;;0.80;;
19998;SDS011;10160;50.926;4.374;2022-08-01T10:17:36;4.03;;;0.68;;
19998;SDS011;10160;50.926;4.374;2022-08-01T10:20:04;2.72;;;0.90;;
19998;SDS011;10160;50.926;4.374;2022-08-01T10:22:31;2.17;;;0.80;;
19998;SDS011;10160;50.926;4.374;2022-08-01T10:25:00;1.70;;;0.57;;
19998;SDS011;10160;50.926;4.374;2022-08-01T10:27:28;2.50;;;0.63;;
19998;SDS011;10160;50.926;4.374;2022-08-01T10:30:00;1.70;;;0.65;;
19998;SDS011;10160;50.926;4.374;2022-08-01T10:32:29;5.82;;;0.93;;
19998;SDS011;10160;50.926;4.374;2022-08-01T10:34:55;1.98;;;0.80;;
19998;SDS011;10160;50.926;4.374;2022-08-01T10:37:22;1.88;;;0.57;;
19998;SDS011;10160;50.926;4.374;2022-08-01T10:39:48;3.30;;;0.65;;
19998;SDS011;10160;50.926;4.374;2022-08-01T10:42:16;2.10;;;0.65;;
19998;SDS011;10160;50.926;4.374;2022-08-01T10:44:43;2.08;;;0.80;;
19998;SDS011;10160;50.926;4.374;2022-08-01T10:47:12;1.00;;;0.50;;
19998;SDS011;10160;50.926;4.374;2022-08-01T10:50:21;6.10;;;0.60;;
19998;SDS011;10160;50.926;4.374;2022-08-01T10:53:33;1.58;;;0.52;;
19998;SDS011;10160;50.926;4.374;2022-08-01T10:58:12;4.63;;;0.80;;
19998;SDS011;10160;50.926;4.374;2022-08-01T11:00:38;4.38;;;0.73;;
19998;SDS011;10160;50.926;4.374;2022-08-01T11:03:04;4.25;;;0.60;;
19998;SDS011;10160;50.926;4.374;2022-08-01T11:05:33;1.25;;;0.50;;
19998;SDS011;10160;50.926;4.374;2022-08-01T11:08:09;2.83;;;0.70;;
19998;SDS011;10160;50.926;4.374;2022-08-01T11:10:45;2.60;;;0.68;;
19998;SDS011;10160;50.926;4.374;2022-08-01T11:13:12;5.97;;;0.73;;
19998;SDS011;10160;50.926;4.374;2022-08-01T11:15:38;5.80;;;0.70;;
19998;SDS011;10160;50.926;4.374;2022-08-01T11:20:56;4.57;;;0.90;;
19998;SDS011;10160;50.926;4.374;2022-08-01T11:23:27;2.63;;;0.70;;
19998;SDS011;10160;50.926;4.374;2022-08-01T11:28:20;1.95;;;0.60;;
19998;SDS011;10160;50.926;4.374;2022-08-01T11:31:23;1.20;;;0.50;;
19998;SDS011;10160;50.926;4.374;2022-08-01T11:38:35;2.35;;;0.60;;
19998;SDS011;10160;50.926;4.374;2022-08-01T11:41:21;2.63;;;0.80;;
19998;SDS011;10160;50.926;4.374;2022-08-01T11:43:55;4.10;;;0.80;;
19998;SDS011;10160;50.926;4.374;2022-08-01T11:49:27;4.22;;;0.80;;
19998;SDS011;10160;50.926;4.374;2022-08-01T11:52:00;2.53;;;0.85;;
19998;SDS011;10160;50.926;4.374;2022-08-01T11:57:12;3.80;;;0.80;;
19998;SDS011;10160;50.926;4.374;2022-08-01T11:59:47;3.53;;;0.93;;
19998;SDS011;10160;50.926;4.374;2022-08-01T12:02:19;3.15;;;0.65;;
19998;SDS011;10160;50.926;4.374;2022-08-01T12:04:51;2.53;;;0.63;;
19998;SDS011;10160;50.926;4.374;2022-08-01T12:07:22;2.63;;;0.80;;
19998;SDS011;10160;50.926;4.374;2022-08-01T12:09:55;2.40;;;0.93;;
19998;SDS011;10160;50.926;4.374;2022-08-01T12:12:26;5.95;;;0.85;;
19998;SDS011;10160;50.926;4.374;2022-08-01T12:14:57;12.40;;;0.90;;
19998;SDS011;10160;50.926;4.374;2022-08-01T12:17:28;3.28;;;0.70;;
19998;SDS011;10160;50.926;4.374;2022-08-01T12:19:54;4.68;;;0.70;;
19998;SDS011;10160;50.926;4.374;2022-08-01T12:22:21;2.08;;;0.88;;
19998;SDS011;10160;50.926;4.374;2022-08-01T12:24:49;4.25;;;0.77;;
19998;SDS011;10160;50.926;4.374;2022-08-01T12:27:24;4.53;;;0.88;;
19998;SDS011;10160;50.926;4.374;2022-08-01T12:29:57;2.22;;;0.75;;
19998;SDS011;10160;50.926;4.374;2022-08-01T12:32:25;1.63;;;0.57;;
19998;SDS011;10160;50.926;4.374;2022-08-01T12:34:51;3.47;;;0.50;;
19998;SDS011;10160;50.926;4.374;2022-08-01T12:37:18;3.95;;;0.80;;
19998;SDS011;10160;50.926;4.374;2022-08-01T12:39:44;3.17;;;0.80;;
19998;SDS011;10160;50.926;4.374;2022-08-01T12:42:11;4.13;;;0.60;;
19998;SDS011;10160;50.926;4.374;2022-08-01T12:44:37;3.72;;;0.70;;
19998;SDS011;10160;50.926;4.374;2022-08-01T12:47:05;5.38;;;1.00;;
19998;SDS011;10160;50.926;4.374;2022-08-01T12:49:35;2.95;;;0.70;;
19998;SDS011;10160;50.926;4.374;2022-08-01T12:52:01;3.22;;;0.77;;
19998;SDS011;10160;50.926;4.374;2022-08-01T12:57:38;5.40;;;0.90;;
19998;SDS011;10160;50.926;4.374;2022-08-01T13:02:36;3.33;;;0.70;;
19998;SDS011;10160;50.926;4.374;2022-08-01T13:05:04;2.53;;;0.70;;
19998;SDS011;10160;50.926;4.374;2022-08-01T13:07:36;2.08;;;0.60;;
19998;SDS011;10160;50.926;4.374;2022-08-01T13:10:11;2.85;;;0.70;;
19998;SDS011;10160;50.926;4.374;2022-08-01T13:12:52;5.60;;;0.52;;
19998;SDS011;10160;50.926;4.374;2022-08-01T13:15:29;2.75;;;0.80;;
19998;SDS011;10160;50.926;4.374;2022-08-01T13:20:50;1.92;;;0.70;;
19998;SDS011;10160;50.926;4.374;2022-08-01T13:23:59;2.58;;;0.65;;
19998;SDS011;10160;50.926;4.374;2022-08-01T13:29:12;4.60;;;0.70;;
19998;SDS011;10160;50.926;4.374;2022-08-01T13:31:48;1.95;;;0.50;;
19998;SDS011;10160;50.926;4.374;2022-08-01T13:34:33;3.17;;;0.70;;
19998;SDS011;10160;50.926;4.374;2022-08-01T13:37:00;2.58;;;0.63;;
19998;SDS011;10160;50.926;4.374;2022-08-01T13:39:27;2.53;;;0.70;;
19998;SDS011;10160;50.926;4.374;2022-08-01T13:42:15;4.22;;;0.70;;
19998;SDS011;10160;50.926;4.374;2022-08-01T13:44:41;3.65;;;0.63;;
19998;SDS011;10160;50.926;4.374;2022-08-01T13:47:13;3.20;;;0.80;;
19998;SDS011;10160;50.926;4.374;2022-08-01T13:49:39;6.68;;;0.70;;
19998;SDS011;10160;50.926;4.374;2022-08-01T13:52:04;4.05;;;0.88;;
19998;SDS011;10160;50.926;4.374;2022-08-01T13:54:34;5.93;;;0.60;;
19998;SDS011;10160;50.926;4.374;2022-08-01T13:57:00;1.85;;;0.47;;
19998;SDS011;10160;50.926;4.374;2022-08-01T14:02:32;4.85;;;0.80;;
19998;SDS011;10160;50.926;4.374;2022-08-01T14:04:58;4.85;;;1.10;;
19998;SDS011;10160;50.926;4.374;2022-08-01T14:07:27;2.70;;;0.80;;
19998;SDS011;10160;50.926;4.374;2022-08-01T14:09:52;1.48;;;0.50;;
19998;SDS011;10160;50.926;4.374;2022-08-01T14:12:33;2.08;;;0.85;;
19998;SDS011;10160;50.926;4.374;2022-08-01T14:15:29;3.75;;;0.70;;
19998;SDS011;10160;50.926;4.374;2022-08-01T14:18:01;2.05;;;0.60;;
19998;SDS011;10160;50.926;4.374;2022-08-01T14:20:27;5.22;;;0.90;;
19998;SDS011;10160;50.926;4.374;2022-08-01T14:22:53;2.90;;;0.68;;
19998;SDS011;10160;50.926;4.374;2022-08-01T14:25:19;2.65;;;0.60;;
19998;SDS011;10160;50.926;4.374;2022-08-01T14:27:44;2.20;;;0.52;;
19998;SDS011;10160;50.926;4.374;2022-08-01T14:30:11;1.80;;;0.40;;
19998;SDS011;10160;50.926;4.374;2022-08-01T14:32:37;4.78;;;0.57;;
19998;SDS011;10160;50.926;4.374;2022-08-01T14:35:03;3.58;;;0.60;;
19998;SDS011;10160;50.926;4.374;2022-08-01T14:37:30;2.47;;;0.50;;
19998;SDS011;10160;50.926;4.374;2022-08-01T14:39:57;3.60;;;0.68;;
19998;SDS011;10160;50.926;4.374;2022-08-01T14:42:26;2.90;;;0.60;;
19998;SDS011;10160;50.926;4.374;2022-08-01T14:44:55;1.90;;;0.50;;
19998;SDS011;10160;50.926;4.374;2022-08-01T14:47:43;1.90;;;0.63;;
19998;SDS011;10160;50.926;4.374;2022-08-01T14:50:11;1.90;;;0.52;;
19998;SDS011;10160;50.926;4.374;2022-08-01T14:52:39;1.92;;;0.65;;
19998;SDS011;10160;50.926;4.374;2022-08-01T14:55:06;1.48;;;0.50;;
19998;SDS011;10160;50.926;4.374;2022-08-01T14:57:33;5.35;;;0.60;;
19998;SDS011;10160;50.926;4.374;2022-08-01T14:59:59;1.65;;;0.68;;
19998;SDS011;10160;50.926;4.374;2022-08-01T15:02:25;2.95;;;0.98;;
19998;SDS011;10160;50.926;4.374;2022-08-01T15:04:51;3.63;;;0.60;;
19998;SDS011;10160;50.926;4.374;2022-08-01T15:07:17;3.67;;;0.75;;
19998;SDS011;10160;50.926;4.374;2022-08-01T15:09:43;2.88;;;0.80;;
19998;SDS011;10160;50.926;4.374;2022-08-01T15:12:10;1.17;;;0.50;;
19998;SDS011;10160;50.926;4.374;2022-08-01T15:14:36;2.25;;;0.80;;
19998;SDS011;10160;50.926;4.374;2022-08-01T15:17:18;3.45;;;0.60;;
19998;SDS011;10160;50.926;4.374;2022-08-01T15:19:52;2.47;;;0.70;;
19998;SDS011;10160;50.926;4.374;2022-08-01T15:22:19;2.28;;;0.50;;
19998;SDS011;10160;50.926;4.374;2022-08-01T15:24:49;2.90;;;0.50;;
19998;SDS011;10160;50.926;4.374;2022-08-01T15:27:16;3.85;;;0.68;;
19998;SDS011;10160;50.926;4.374;2022-08-01T15:29:46;3.28;;;0.70;;
19998;SDS011;10160;50.926;4.374;2022-08-01T15:32:12;4.13;;;0.65;;
19998;SDS011;10160;50.926;4.374;2022-08-01T15:34:40;2.30;;;0.77;;
19998;SDS011;10160;50.926;4.374;2022-08-01T15:37:10;1.73;;;0.60;;